sensor_id;sensor_type;location;lat;lon;timestamp;P1;durP1;ratioP1;P2;durP2;ratioP2
40635;SDS011;26642;55.766;37.828;2023-08-12T00:01:51;9.13;;;7.32;;
40635;SDS011;26642;55.766;37.828;2023-08-12T00:04:17;7.97;;;7.28;;
40635;SDS011;26642;55.766;37.828;2023-08-12T00:06:43;8.25;;;7.35;;
40635;SDS011;26642;55.766;37.828;2023-08-12T00:09:09;8.85;;;7.95;;
40635;SDS011;26642;55.766;37.828;2023-08-12T00:11:37;8.35;;;7.57;;
40635;SDS011;26642;55.766;37.828;2023-08-12T00:14:03;8.77;;;7.97;;
40635;SDS011;26642;55.766;37.828;2023-08-12T00:16:29;8.30;;;7.43;;
40635;SDS011;26642;55.766;37.828;2023-08-12T00:18:56;9.00;;;8.13;;
40635;SDS011;26642;55.766;37.828;2023-08-12T00:21:22;8.23;;;7.53;;
40635;SDS011;26642;55.766;37.828;2023-08-12T00:23:47;8.93;;;8.02;;
40635;SDS011;26642;55.766;37.828;2023-08-12T00:26:15;7.93;;;7.22;;
40635;SDS011;26642;55.766;37.828;2023-08-12T00:28:41;8.38;;;7.65;;
40635;SDS011;26642;55.766;37.828;2023-08-12T00:31:07;8.38;;;7.68;;
40635;SDS011;26642;55.766;37.828;2023-08-12T00:33:33;8.48;;;7.28;;
40635;SDS011;26642;55.766;37.828;2023-08-12T00:35:59;8.48;;;7.68;;
40635;SDS011;26642;55.766;37.828;2023-08-12T00:38:26;8.70;;;7.80;;
40635;SDS011;26642;55.766;37.828;2023-08-12T00:40:53;8.70;;;7.90;;
40635;SDS011;26642;55.766;37.828;2023-08-12T00:43:19;9.07;;;8.20;;
40635;SDS011;26642;55.766;37.828;2023-08-12T00:45:45;8.43;;;7.65;;
40635;SDS011;26642;55.766;37.828;2023-08-12T00:48:11;8.60;;;7.90;;
40635;SDS011;26642;55.766;37.828;2023-08-12T00:50:37;8.73;;;7.90;;
40635;SDS011;26642;55.766;37.828;2023-08-12T00:53:05;10.13;;;8.43;;
40635;SDS011;26642;55.766;37.828;2023-08-12T00:55:33;9.80;;;7.70;;
40635;SDS011;26642;55.766;37.828;2023-08-12T00:57:59;8.80;;;8.00;;
40635;SDS011;26642;55.766;37.828;2023-08-12T01:00:25;10.25;;;8.02;;
40635;SDS011;26642;55.766;37.828;2023-08-12T01:02:51;8.93;;;8.10;;
40635;SDS011;26642;55.766;37.828;2023-08-12T01:05:19;8.23;;;7.53;;
40635;SDS011;26642;55.766;37.828;2023-08-12T01:07:45;9.05;;;8.25;;
40635;SDS011;26642;55.766;37.828;2023-08-12T01:10:12;8.60;;;7.80;;
40635;SDS011;26642;55.766;37.828;2023-08-12T01:12:50;8.63;;;7.93;;
40635;SDS011;26642;55.766;37.828;2023-08-12T01:15:23;9.07;;;8.20;;
40635;SDS011;26642;55.766;37.828;2023-08-12T01:17:52;9.45;;;8.25;;
40635;SDS011;26642;55.766;37.828;2023-08-12T01:20:20;8.82;;;8.00;;
40635;SDS011;26642;55.766;37.828;2023-08-12T01:22:56;8.43;;;7.60;;
40635;SDS011;26642;55.766;37.828;2023-08-12T01:25:27;9.13;;;8.15;;
40635;SDS011;26642;55.766;37.828;2023-08-12T01:27:53;8.82;;;7.80;;
40635;SDS011;26642;55.766;37.828;2023-08-12T01:30:19;8.70;;;7.90;;
40635;SDS011;26642;55.766;37.828;2023-08-12T01:35:28;8.63;;;7.25;;
40635;SDS011;26642;55.766;37.828;2023-08-12T01:38:01;9.73;;;7.82;;
40635;SDS011;26642;55.766;37.828;2023-08-12T01:40:29;8.50;;;7.70;;
40635;SDS011;26642;55.766;37.828;2023-08-12T01:42:57;9.13;;;8.07;;
40635;SDS011;26642;55.766;37.828;2023-08-12T01:45:25;9.13;;;8.27;;
40635;SDS011;26642;55.766;37.828;2023-08-12T01:47:51;9.13;;;8.23;;
40635;SDS011;26642;55.766;37.828;2023-08-12T01:50:17;8.73;;;7.93;;
40635;SDS011;26642;55.766;37.828;2023-08-12T01:52:44;9.00;;;8.10;;
40635;SDS011;26642;55.766;37.828;2023-08-12T01:55:10;9.18;;;8.15;;
40635;SDS011;26642;55.766;37.828;2023-08-12T01:57:36;8.63;;;7.72;;
40635;SDS011;26642;55.766;37.828;2023-08-12T02:00:04;11.48;;;9.00;;
40635;SDS011;26642;55.766;37.828;2023-08-12T02:02:42;8.95;;;8.05;;
40635;SDS011;26642;55.766;37.828;2023-08-12T02:05:11;11.02;;;8.60;;
40635;SDS011;26642;55.766;37.828;2023-08-12T02:07:38;9.18;;;8.27;;
40635;SDS011;26642;55.766;37.828;2023-08-12T02:10:04;9.45;;;8.40;;
40635;SDS011;26642;55.766;37.828;2023-08-12T02:12:31;10.90;;;8.32;;
40635;SDS011;26642;55.766;37.828;2023-08-12T02:14:56;9.43;;;8.63;;
40635;SDS011;26642;55.766;37.828;2023-08-12T02:17:23;11.07;;;8.73;;
40635;SDS011;26642;55.766;37.828;2023-08-12T02:19:50;8.57;;;7.78;;
40635;SDS011;26642;55.766;37.828;2023-08-12T02:22:16;10.10;;;9.07;;
40635;SDS011;26642;55.766;37.828;2023-08-12T02:24:42;9.50;;;8.60;;
40635;SDS011;26642;55.766;37.828;2023-08-12T02:27:08;10.27;;;9.05;;
40635;SDS011;26642;55.766;37.828;2023-08-12T02:29:34;9.57;;;8.60;;
40635;SDS011;26642;55.766;37.828;2023-08-12T02:32:00;9.40;;;8.50;;
40635;SDS011;26642;55.766;37.828;2023-08-12T02:34:28;10.15;;;9.02;;
40635;SDS011;26642;55.766;37.828;2023-08-12T02:36:53;10.27;;;8.82;;
40635;SDS011;26642;55.766;37.828;2023-08-12T02:39:19;10.00;;;9.00;;
40635;SDS011;26642;55.766;37.828;2023-08-12T02:41:45;10.27;;;8.73;;
40635;SDS011;26642;55.766;37.828;2023-08-12T02:44:11;10.27;;;9.30;;
40635;SDS011;26642;55.766;37.828;2023-08-12T02:46:37;9.90;;;8.50;;
40635;SDS011;26642;55.766;37.828;2023-08-12T02:49:04;9.65;;;8.32;;
40635;SDS011;26642;55.766;37.828;2023-08-12T02:51:30;9.38;;;8.48;;
40635;SDS011;26642;55.766;37.828;2023-08-12T02:53:56;10.48;;;8.48;;
40635;SDS011;26642;55.766;37.828;2023-08-12T02:56:22;11.98;;;8.80;;
40635;SDS011;26642;55.766;37.828;2023-08-12T02:58:48;9.65;;;8.75;;
40635;SDS011;26642;55.766;37.828;2023-08-12T03:01:14;9.80;;;8.77;;
40635;SDS011;26642;55.766;37.828;2023-08-12T03:03:41;11.25;;;9.07;;
40635;SDS011;26642;55.766;37.828;2023-08-12T03:06:07;9.73;;;8.80;;
40635;SDS011;26642;55.766;37.828;2023-08-12T03:08:34;9.50;;;8.50;;
40635;SDS011;26642;55.766;37.828;2023-08-12T03:11:00;12.25;;;8.52;;
40635;SDS011;26642;55.766;37.828;2023-08-12T03:13:27;8.95;;;8.02;;
40635;SDS011;26642;55.766;37.828;2023-08-12T03:15:54;10.25;;;8.65;;
40635;SDS011;26642;55.766;37.828;2023-08-12T03:18:20;8.93;;;8.13;;
40635;SDS011;26642;55.766;37.828;2023-08-12T03:20:46;9.98;;;8.98;;
40635;SDS011;26642;55.766;37.828;2023-08-12T03:23:13;10.25;;;8.68;;
40635;SDS011;26642;55.766;37.828;2023-08-12T03:25:41;9.73;;;8.73;;
40635;SDS011;26642;55.766;37.828;2023-08-12T03:28:07;9.52;;;8.52;;
40635;SDS011;26642;55.766;37.828;2023-08-12T03:30:33;9.27;;;8.27;;
40635;SDS011;26642;55.766;37.828;2023-08-12T03:33:00;9.48;;;8.40;;
40635;SDS011;26642;55.766;37.828;2023-08-12T03:35:30;9.55;;;8.55;;
40635;SDS011;26642;55.766;37.828;2023-08-12T03:37:56;8.90;;;8.15;;
40635;SDS011;26642;55.766;37.828;2023-08-12T03:40:22;8.95;;;8.05;;
40635;SDS011;26642;55.766;37.828;2023-08-12T03:42:49;9.18;;;8.25;;
40635;SDS011;26642;55.766;37.828;2023-08-12T03:45:17;10.82;;;8.43;;
40635;SDS011;26642;55.766;37.828;2023-08-12T03:47:43;11.32;;;8.15;;
40635;SDS011;26642;55.766;37.828;2023-08-12T03:50:09;9.05;;;8.18;;
40635;SDS011;26642;55.766;37.828;2023-08-12T03:52:35;10.57;;;8.23;;
40635;SDS011;26642;55.766;37.828;2023-08-12T03:55:01;12.38;;;8.30;;
40635;SDS011;26642;55.766;37.828;2023-08-12T03:57:27;10.90;;;8.13;;
40635;SDS011;26642;55.766;37.828;2023-08-12T03:59:54;9.13;;;8.23;;
40635;SDS011;26642;55.766;37.828;2023-08-12T04:02:20;9.10;;;8.20;;
40635;SDS011;26642;55.766;37.828;2023-08-12T04:04:46;9.57;;;8.30;;
40635;SDS011;26642;55.766;37.828;2023-08-12T04:07:12;10.02;;;8.25;;
40635;SDS011;26642;55.766;37.828;2023-08-12T04:09:37;9.57;;;8.68;;
40635;SDS011;26642;55.766;37.828;2023-08-12T04:12:03;9.40;;;7.72;;
40635;SDS011;26642;55.766;37.828;2023-08-12T04:14:30;9.38;;;8.48;;
40635;SDS011;26642;55.766;37.828;2023-08-12T04:16:55;9.23;;;8.32;;
40635;SDS011;26642;55.766;37.828;2023-08-12T04:19:21;9.10;;;8.30;;
40635;SDS011;26642;55.766;37.828;2023-08-12T04:21:47;8.90;;;8.10;;
40635;SDS011;26642;55.766;37.828;2023-08-12T04:24:13;8.93;;;7.72;;
40635;SDS011;26642;55.766;37.828;2023-08-12T04:26:39;8.98;;;8.18;;
40635;SDS011;26642;55.766;37.828;2023-08-12T04:29:05;9.23;;;8.32;;
40635;SDS011;26642;55.766;37.828;2023-08-12T04:31:35;8.90;;;7.95;;
40635;SDS011;26642;55.766;37.828;2023-08-12T04:34:02;10.23;;;7.45;;
40635;SDS011;26642;55.766;37.828;2023-08-12T04:36:30;9.13;;;8.32;;
40635;SDS011;26642;55.766;37.828;2023-08-12T04:38:58;9.30;;;8.20;;
40635;SDS011;26642;55.766;37.828;2023-08-12T04:41:24;8.38;;;7.65;;
40635;SDS011;26642;55.766;37.828;2023-08-12T04:43:51;8.93;;;8.18;;
40635;SDS011;26642;55.766;37.828;2023-08-12T04:46:17;11.15;;;7.72;;
40635;SDS011;26642;55.766;37.828;2023-08-12T04:48:44;10.57;;;8.68;;
40635;SDS011;26642;55.766;37.828;2023-08-12T04:51:11;11.20;;;8.38;;
40635;SDS011;26642;55.766;37.828;2023-08-12T04:53:36;9.85;;;8.48;;
40635;SDS011;26642;55.766;37.828;2023-08-12T04:56:02;9.57;;;8.57;;
40635;SDS011;26642;55.766;37.828;2023-08-12T04:58:30;13.40;;;8.80;;
40635;SDS011;26642;55.766;37.828;2023-08-12T05:00:56;9.35;;;8.18;;
40635;SDS011;26642;55.766;37.828;2023-08-12T05:03:23;9.52;;;8.23;;
40635;SDS011;26642;55.766;37.828;2023-08-12T05:05:51;8.57;;;7.68;;
40635;SDS011;26642;55.766;37.828;2023-08-12T05:08:19;8.90;;;7.95;;
40635;SDS011;26642;55.766;37.828;2023-08-12T05:10:49;9.77;;;7.80;;
40635;SDS011;26642;55.766;37.828;2023-08-12T05:13:15;8.73;;;8.02;;
40635;SDS011;26642;55.766;37.828;2023-08-12T05:15:44;8.63;;;7.93;;
40635;SDS011;26642;55.766;37.828;2023-08-12T05:18:12;9.13;;;7.93;;
40635;SDS011;26642;55.766;37.828;2023-08-12T05:20:39;8.45;;;7.75;;
40635;SDS011;26642;55.766;37.828;2023-08-12T05:23:06;9.00;;;8.15;;
40635;SDS011;26642;55.766;37.828;2023-08-12T05:25:32;8.43;;;7.63;;
40635;SDS011;26642;55.766;37.828;2023-08-12T05:27:58;9.50;;;8.30;;
40635;SDS011;26642;55.766;37.828;2023-08-12T05:30:24;9.45;;;8.10;;
40635;SDS011;26642;55.766;37.828;2023-08-12T05:32:50;9.05;;;8.00;;
40635;SDS011;26642;55.766;37.828;2023-08-12T05:35:16;9.27;;;8.35;;
40635;SDS011;26642;55.766;37.828;2023-08-12T05:37:42;8.95;;;8.05;;
40635;SDS011;26642;55.766;37.828;2023-08-12T05:40:08;10.70;;;8.27;;
40635;SDS011;26642;55.766;37.828;2023-08-12T05:42:35;8.63;;;7.82;;
40635;SDS011;26642;55.766;37.828;2023-08-12T05:45:01;8.73;;;7.80;;
40635;SDS011;26642;55.766;37.828;2023-08-12T05:47:29;9.50;;;8.63;;
40635;SDS011;26642;55.766;37.828;2023-08-12T05:49:57;11.10;;;8.73;;
40635;SDS011;26642;55.766;37.828;2023-08-12T05:52:23;9.60;;;8.70;;
40635;SDS011;26642;55.766;37.828;2023-08-12T05:54:49;9.63;;;8.68;;
40635;SDS011;26642;55.766;37.828;2023-08-12T05:57:15;8.98;;;8.00;;
40635;SDS011;26642;55.766;37.828;2023-08-12T05:59:41;9.07;;;8.18;;
40635;SDS011;26642;55.766;37.828;2023-08-12T06:02:07;9.18;;;8.38;;
40635;SDS011;26642;55.766;37.828;2023-08-12T06:04:34;9.40;;;8.48;;
40635;SDS011;26642;55.766;37.828;2023-08-12T06:07:00;9.40;;;8.07;;
40635;SDS011;26642;55.766;37.828;2023-08-12T06:09:26;9.10;;;8.20;;
40635;SDS011;26642;55.766;37.828;2023-08-12T06:11:52;9.10;;;8.07;;
40635;SDS011;26642;55.766;37.828;2023-08-12T06:14:18;9.13;;;8.07;;
40635;SDS011;26642;55.766;37.828;2023-08-12T06:16:44;8.95;;;8.10;;
40635;SDS011;26642;55.766;37.828;2023-08-12T06:19:10;9.05;;;8.15;;
40635;SDS011;26642;55.766;37.828;2023-08-12T06:21:36;8.95;;;7.93;;
40635;SDS011;26642;55.766;37.828;2023-08-12T06:24:02;8.65;;;7.85;;
40635;SDS011;26642;55.766;37.828;2023-08-12T06:26:28;9.60;;;7.60;;
40635;SDS011;26642;55.766;37.828;2023-08-12T06:28:54;9.27;;;8.35;;
40635;SDS011;26642;55.766;37.828;2023-08-12T06:31:20;10.57;;;7.65;;
40635;SDS011;26642;55.766;37.828;2023-08-12T06:33:46;9.10;;;8.25;;
40635;SDS011;26642;55.766;37.828;2023-08-12T06:36:11;9.48;;;8.05;;
40635;SDS011;26642;55.766;37.828;2023-08-12T06:38:37;8.75;;;7.93;;
40635;SDS011;26642;55.766;37.828;2023-08-12T06:41:03;8.02;;;7.32;;
40635;SDS011;26642;55.766;37.828;2023-08-12T06:43:29;8.75;;;7.80;;
40635;SDS011;26642;55.766;37.828;2023-08-12T06:45:55;8.90;;;7.50;;
40635;SDS011;26642;55.766;37.828;2023-08-12T06:48:21;9.70;;;8.38;;
40635;SDS011;26642;55.766;37.828;2023-08-12T06:50:52;8.75;;;7.85;;
40635;SDS011;26642;55.766;37.828;2023-08-12T06:53:21;8.80;;;8.10;;
40635;SDS011;26642;55.766;37.828;2023-08-12T06:55:48;10.15;;;8.23;;
40635;SDS011;26642;55.766;37.828;2023-08-12T06:58:14;8.13;;;7.32;;
40635;SDS011;26642;55.766;37.828;2023-08-12T07:00:42;8.27;;;7.47;;
40635;SDS011;26642;55.766;37.828;2023-08-12T07:03:08;8.52;;;7.72;;
40635;SDS011;26642;55.766;37.828;2023-08-12T07:05:34;8.18;;;7.47;;
40635;SDS011;26642;55.766;37.828;2023-08-12T07:08:00;10.73;;;7.53;;
40635;SDS011;26642;55.766;37.828;2023-08-12T07:10:26;8.23;;;7.43;;
40635;SDS011;26642;55.766;37.828;2023-08-12T07:12:52;9.02;;;8.20;;
40635;SDS011;26642;55.766;37.828;2023-08-12T07:15:18;8.15;;;7.38;;
40635;SDS011;26642;55.766;37.828;2023-08-12T07:17:44;8.35;;;7.45;;
40635;SDS011;26642;55.766;37.828;2023-08-12T07:20:10;8.65;;;7.75;;
40635;SDS011;26642;55.766;37.828;2023-08-12T07:22:36;8.70;;;7.90;;
40635;SDS011;26642;55.766;37.828;2023-08-12T07:25:02;8.18;;;7.38;;
40635;SDS011;26642;55.766;37.828;2023-08-12T07:27:28;9.23;;;8.43;;
40635;SDS011;26642;55.766;37.828;2023-08-12T07:29:54;8.77;;;7.93;;
40635;SDS011;26642;55.766;37.828;2023-08-12T07:32:20;8.32;;;7.63;;
40635;SDS011;26642;55.766;37.828;2023-08-12T07:34:46;9.57;;;8.40;;
40635;SDS011;26642;55.766;37.828;2023-08-12T07:37:12;9.75;;;8.52;;
40635;SDS011;26642;55.766;37.828;2023-08-12T07:39:38;9.23;;;7.82;;
40635;SDS011;26642;55.766;37.828;2023-08-12T07:42:04;11.98;;;8.63;;
40635;SDS011;26642;55.766;37.828;2023-08-12T07:44:30;8.80;;;7.90;;
40635;SDS011;26642;55.766;37.828;2023-08-12T07:46:56;9.05;;;8.15;;
40635;SDS011;26642;55.766;37.828;2023-08-12T07:49:22;10.48;;;7.88;;
40635;SDS011;26642;55.766;37.828;2023-08-12T07:51:48;8.80;;;8.00;;
40635;SDS011;26642;55.766;37.828;2023-08-12T07:54:14;8.73;;;7.93;;
40635;SDS011;26642;55.766;37.828;2023-08-12T07:56:40;10.27;;;8.10;;
40635;SDS011;26642;55.766;37.828;2023-08-12T07:59:06;10.10;;;8.85;;
40635;SDS011;26642;55.766;37.828;2023-08-12T08:01:32;8.88;;;7.97;;
40635;SDS011;26642;55.766;37.828;2023-08-12T08:03:58;9.27;;;8.18;;
40635;SDS011;26642;55.766;37.828;2023-08-12T08:06:24;8.43;;;7.63;;
40635;SDS011;26642;55.766;37.828;2023-08-12T08:08:50;9.43;;;7.90;;
40635;SDS011;26642;55.766;37.828;2023-08-12T08:11:16;8.70;;;7.90;;
40635;SDS011;26642;55.766;37.828;2023-08-12T08:13:42;10.25;;;8.23;;
40635;SDS011;26642;55.766;37.828;2023-08-12T08:16:08;9.30;;;8.35;;
40635;SDS011;26642;55.766;37.828;2023-08-12T08:18:40;10.57;;;9.02;;
40635;SDS011;26642;55.766;37.828;2023-08-12T08:21:09;9.63;;;8.65;;
40635;SDS011;26642;55.766;37.828;2023-08-12T08:23:35;10.57;;;8.82;;
40635;SDS011;26642;55.766;37.828;2023-08-12T08:26:00;9.88;;;8.68;;
40635;SDS011;26642;55.766;37.828;2023-08-12T08:28:26;9.77;;;8.73;;
40635;SDS011;26642;55.766;37.828;2023-08-12T08:30:52;9.68;;;8.68;;
40635;SDS011;26642;55.766;37.828;2023-08-12T08:33:19;10.13;;;8.90;;
40635;SDS011;26642;55.766;37.828;2023-08-12T08:35:45;10.60;;;8.73;;
40635;SDS011;26642;55.766;37.828;2023-08-12T08:38:10;10.80;;;8.88;;
40635;SDS011;26642;55.766;37.828;2023-08-12T08:40:36;11.38;;;8.80;;
40635;SDS011;26642;55.766;37.828;2023-08-12T08:43:04;9.55;;;8.65;;
40635;SDS011;26642;55.766;37.828;2023-08-12T08:45:33;10.07;;;8.57;;
40635;SDS011;26642;55.766;37.828;2023-08-12T08:48:00;9.98;;;8.82;;
40635;SDS011;26642;55.766;37.828;2023-08-12T08:50:28;9.75;;;8.85;;
40635;SDS011;26642;55.766;37.828;2023-08-12T08:52:55;14.82;;;9.27;;
40635;SDS011;26642;55.766;37.828;2023-08-12T08:55:22;10.07;;;8.60;;
40635;SDS011;26642;55.766;37.828;2023-08-12T08:57:48;10.77;;;8.90;;
40635;SDS011;26642;55.766;37.828;2023-08-12T09:00:15;13.48;;;9.50;;
40635;SDS011;26642;55.766;37.828;2023-08-12T09:02:43;10.90;;;9.10;;
40635;SDS011;26642;55.766;37.828;2023-08-12T09:05:11;11.48;;;9.40;;
40635;SDS011;26642;55.766;37.828;2023-08-12T09:07:39;9.82;;;8.82;;
40635;SDS011;26642;55.766;37.828;2023-08-12T09:10:07;13.23;;;9.50;;
40635;SDS011;26642;55.766;37.828;2023-08-12T09:12:35;10.05;;;8.60;;
40635;SDS011;26642;55.766;37.828;2023-08-12T09:15:02;12.00;;;9.02;;
40635;SDS011;26642;55.766;37.828;2023-08-12T09:17:29;10.05;;;9.00;;
40635;SDS011;26642;55.766;37.828;2023-08-12T09:19:57;10.07;;;9.15;;
40635;SDS011;26642;55.766;37.828;2023-08-12T09:22:26;9.98;;;8.95;;
40635;SDS011;26642;55.766;37.828;2023-08-12T09:24:58;11.25;;;9.25;;
40635;SDS011;26642;55.766;37.828;2023-08-12T09:27:24;10.50;;;9.38;;
40635;SDS011;26642;55.766;37.828;2023-08-12T09:29:51;10.27;;;9.10;;
40635;SDS011;26642;55.766;37.828;2023-08-12T09:32:22;10.07;;;9.05;;
40635;SDS011;26642;55.766;37.828;2023-08-12T09:34:55;10.25;;;9.25;;
40635;SDS011;26642;55.766;37.828;2023-08-12T09:37:22;9.98;;;8.98;;
40635;SDS011;26642;55.766;37.828;2023-08-12T09:39:50;10.32;;;9.32;;
40635;SDS011;26642;55.766;37.828;2023-08-12T09:42:17;10.23;;;8.73;;
40635;SDS011;26642;55.766;37.828;2023-08-12T09:44:44;10.02;;;9.10;;
40635;SDS011;26642;55.766;37.828;2023-08-12T09:47:10;10.48;;;9.20;;
40635;SDS011;26642;55.766;37.828;2023-08-12T09:49:37;10.75;;;9.65;;
40635;SDS011;26642;55.766;37.828;2023-08-12T09:52:04;10.98;;;9.57;;
40635;SDS011;26642;55.766;37.828;2023-08-12T09:54:32;10.50;;;9.43;;
40635;SDS011;26642;55.766;37.828;2023-08-12T09:56:59;10.93;;;9.77;;
40635;SDS011;26642;55.766;37.828;2023-08-12T09:59:32;10.38;;;9.48;;
40635;SDS011;26642;55.766;37.828;2023-08-12T10:02:00;10.90;;;8.93;;
40635;SDS011;26642;55.766;37.828;2023-08-12T10:04:35;11.07;;;9.63;;
40635;SDS011;26642;55.766;37.828;2023-08-12T10:07:06;10.25;;;9.18;;
40635;SDS011;26642;55.766;37.828;2023-08-12T10:09:33;10.68;;;9.77;;
40635;SDS011;26642;55.766;37.828;2023-08-12T10:12:01;10.77;;;9.68;;
40635;SDS011;26642;55.766;37.828;2023-08-12T10:14:28;10.73;;;9.43;;
40635;SDS011;26642;55.766;37.828;2023-08-12T10:16:54;10.55;;;9.45;;
40635;SDS011;26642;55.766;37.828;2023-08-12T10:19:22;10.68;;;9.52;;
40635;SDS011;26642;55.766;37.828;2023-08-12T10:21:50;11.65;;;9.93;;
40635;SDS011;26642;55.766;37.828;2023-08-12T10:24:22;10.55;;;9.50;;
40635;SDS011;26642;55.766;37.828;2023-08-12T10:26:51;11.00;;;10.00;;
40635;SDS011;26642;55.766;37.828;2023-08-12T10:29:18;11.35;;;9.70;;
40635;SDS011;26642;55.766;37.828;2023-08-12T10:31:45;11.00;;;9.90;;
40635;SDS011;26642;55.766;37.828;2023-08-12T10:34:22;12.27;;;10.00;;
40635;SDS011;26642;55.766;37.828;2023-08-12T10:37:00;11.63;;;10.32;;
40635;SDS011;26642;55.766;37.828;2023-08-12T10:39:28;12.23;;;11.02;;
40635;SDS011;26642;55.766;37.828;2023-08-12T10:41:57;11.38;;;10.27;;
40635;SDS011;26642;55.766;37.828;2023-08-12T10:44:27;11.65;;;10.35;;
40635;SDS011;26642;55.766;37.828;2023-08-12T10:47:17;12.02;;;10.82;;
40635;SDS011;26642;55.766;37.828;2023-08-12T10:49:43;11.95;;;10.77;;
40635;SDS011;26642;55.766;37.828;2023-08-12T10:52:25;14.27;;;10.68;;
40635;SDS011;26642;55.766;37.828;2023-08-12T10:55:15;12.45;;;10.35;;
40635;SDS011;26642;55.766;37.828;2023-08-12T10:57:41;12.63;;;10.18;;
40635;SDS011;26642;55.766;37.828;2023-08-12T11:00:10;12.38;;;10.13;;
40635;SDS011;26642;55.766;37.828;2023-08-12T11:02:39;12.30;;;11.05;;
40635;SDS011;26642;55.766;37.828;2023-08-12T11:05:09;14.07;;;10.85;;
40635;SDS011;26642;55.766;37.828;2023-08-12T11:07:40;11.65;;;10.45;;
40635;SDS011;26642;55.766;37.828;2023-08-12T11:10:15;11.95;;;10.75;;
40635;SDS011;26642;55.766;37.828;2023-08-12T11:12:47;12.30;;;10.85;;
40635;SDS011;26642;55.766;37.828;2023-08-12T11:15:16;12.45;;;10.65;;
40635;SDS011;26642;55.766;37.828;2023-08-12T11:17:43;12.07;;;10.88;;
40635;SDS011;26642;55.766;37.828;2023-08-12T11:20:12;12.35;;;11.10;;
40635;SDS011;26642;55.766;37.828;2023-08-12T11:22:43;13.40;;;11.55;;
40635;SDS011;26642;55.766;37.828;2023-08-12T11:25:12;13.18;;;11.38;;
40635;SDS011;26642;55.766;37.828;2023-08-12T11:27:43;13.75;;;12.25;;
40635;SDS011;26642;55.766;37.828;2023-08-12T11:30:11;12.18;;;10.98;;
40635;SDS011;26642;55.766;37.828;2023-08-12T11:32:43;17.90;;;10.70;;
40635;SDS011;26642;55.766;37.828;2023-08-12T11:35:10;12.10;;;10.85;;
40635;SDS011;26642;55.766;37.828;2023-08-12T11:37:38;12.32;;;11.02;;
40635;SDS011;26642;55.766;37.828;2023-08-12T11:40:05;12.10;;;10.55;;
40635;SDS011;26642;55.766;37.828;2023-08-12T11:42:34;12.35;;;10.82;;
40635;SDS011;26642;55.766;37.828;2023-08-12T11:45:04;12.85;;;11.55;;
40635;SDS011;26642;55.766;37.828;2023-08-12T11:47:36;13.10;;;10.75;;
40635;SDS011;26642;55.766;37.828;2023-08-12T11:50:04;13.60;;;10.77;;
40635;SDS011;26642;55.766;37.828;2023-08-12T11:52:31;11.00;;;9.90;;
40635;SDS011;26642;55.766;37.828;2023-08-12T11:54:58;11.30;;;10.05;;
40635;SDS011;26642;55.766;37.828;2023-08-12T11:57:25;11.63;;;10.07;;
40635;SDS011;26642;55.766;37.828;2023-08-12T11:59:53;13.50;;;11.00;;
40635;SDS011;26642;55.766;37.828;2023-08-12T12:02:25;11.27;;;10.05;;
40635;SDS011;26642;55.766;37.828;2023-08-12T12:04:52;11.40;;;9.82;;
40635;SDS011;26642;55.766;37.828;2023-08-12T12:07:22;11.52;;;9.50;;
40635;SDS011;26642;55.766;37.828;2023-08-12T12:09:50;10.63;;;9.40;;
40635;SDS011;26642;55.766;37.828;2023-08-12T12:12:17;12.77;;;9.98;;
40635;SDS011;26642;55.766;37.828;2023-08-12T12:14:47;11.07;;;9.90;;
40635;SDS011;26642;55.766;37.828;2023-08-12T12:17:14;10.40;;;9.35;;
40635;SDS011;26642;55.766;37.828;2023-08-12T12:19:40;11.43;;;9.93;;
40635;SDS011;26642;55.766;37.828;2023-08-12T12:22:09;13.07;;;9.85;;
40635;SDS011;26642;55.766;37.828;2023-08-12T12:24:44;11.30;;;9.75;;
40635;SDS011;26642;55.766;37.828;2023-08-12T12:27:12;12.40;;;9.88;;
40635;SDS011;26642;55.766;37.828;2023-08-12T12:29:40;14.07;;;10.57;;
40635;SDS011;26642;55.766;37.828;2023-08-12T12:32:06;12.85;;;10.15;;
40635;SDS011;26642;55.766;37.828;2023-08-12T12:34:32;11.10;;;9.85;;
40635;SDS011;26642;55.766;37.828;2023-08-12T12:36:58;10.52;;;9.52;;
40635;SDS011;26642;55.766;37.828;2023-08-12T12:39:24;11.25;;;9.43;;
40635;SDS011;26642;55.766;37.828;2023-08-12T12:41:50;11.85;;;9.65;;
40635;SDS011;26642;55.766;37.828;2023-08-12T12:44:16;10.18;;;9.07;;
40635;SDS011;26642;55.766;37.828;2023-08-12T12:46:42;11.98;;;9.43;;
40635;SDS011;26642;55.766;37.828;2023-08-12T12:49:08;9.93;;;9.00;;
40635;SDS011;26642;55.766;37.828;2023-08-12T12:51:34;11.48;;;9.27;;
40635;SDS011;26642;55.766;37.828;2023-08-12T12:54:00;10.73;;;9.20;;
40635;SDS011;26642;55.766;37.828;2023-08-12T12:56:26;12.65;;;9.68;;
40635;SDS011;26642;55.766;37.828;2023-08-12T12:58:52;9.45;;;8.40;;
40635;SDS011;26642;55.766;37.828;2023-08-12T13:01:18;10.68;;;9.30;;
40635;SDS011;26642;55.766;37.828;2023-08-12T13:03:44;10.65;;;9.45;;
40635;SDS011;26642;55.766;37.828;2023-08-12T13:06:09;11.15;;;9.60;;
40635;SDS011;26642;55.766;37.828;2023-08-12T13:08:35;11.85;;;9.43;;
40635;SDS011;26642;55.766;37.828;2023-08-12T13:11:01;10.07;;;9.02;;
40635;SDS011;26642;55.766;37.828;2023-08-12T13:13:27;10.68;;;9.57;;
40635;SDS011;26642;55.766;37.828;2023-08-12T13:15:53;10.57;;;9.57;;
40635;SDS011;26642;55.766;37.828;2023-08-12T13:18:19;9.80;;;8.90;;
40635;SDS011;26642;55.766;37.828;2023-08-12T13:20:45;16.70;;;10.02;;
40635;SDS011;26642;55.766;37.828;2023-08-12T13:23:11;12.77;;;9.93;;
40635;SDS011;26642;55.766;37.828;2023-08-12T13:25:37;10.98;;;9.40;;
40635;SDS011;26642;55.766;37.828;2023-08-12T13:28:03;10.55;;;9.40;;
40635;SDS011;26642;55.766;37.828;2023-08-12T13:30:30;10.40;;;9.13;;
40635;SDS011;26642;55.766;37.828;2023-08-12T13:32:56;10.20;;;9.10;;
40635;SDS011;26642;55.766;37.828;2023-08-12T13:35:22;10.93;;;9.38;;
40635;SDS011;26642;55.766;37.828;2023-08-12T13:37:49;10.52;;;8.73;;
40635;SDS011;26642;55.766;37.828;2023-08-12T13:40:16;9.95;;;8.70;;
40635;SDS011;26642;55.766;37.828;2023-08-12T13:42:42;8.80;;;7.85;;
40635;SDS011;26642;55.766;37.828;2023-08-12T13:45:09;11.27;;;9.20;;
40635;SDS011;26642;55.766;37.828;2023-08-12T13:47:36;11.40;;;8.90;;
40635;SDS011;26642;55.766;37.828;2023-08-12T13:50:02;9.55;;;8.65;;
40635;SDS011;26642;55.766;37.828;2023-08-12T13:52:29;9.32;;;8.18;;
40635;SDS011;26642;55.766;37.828;2023-08-12T13:54:56;12.23;;;8.82;;
40635;SDS011;26642;55.766;37.828;2023-08-12T13:57:21;12.23;;;9.25;;
40635;SDS011;26642;55.766;37.828;2023-08-12T13:59:47;9.88;;;8.88;;
40635;SDS011;26642;55.766;37.828;2023-08-12T14:02:14;10.90;;;9.07;;
40635;SDS011;26642;55.766;37.828;2023-08-12T14:04:40;10.15;;;8.55;;
40635;SDS011;26642;55.766;37.828;2023-08-12T14:07:06;9.45;;;8.45;;
40635;SDS011;26642;55.766;37.828;2023-08-12T14:22:32;10.40;;;8.85;;
40635;SDS011;26642;55.766;37.828;2023-08-12T14:24:58;14.52;;;9.00;;
40635;SDS011;26642;55.766;37.828;2023-08-12T14:27:24;10.90;;;8.90;;
40635;SDS011;26642;55.766;37.828;2023-08-12T14:29:49;9.68;;;8.55;;
40635;SDS011;26642;55.766;37.828;2023-08-12T14:32:15;9.85;;;8.85;;
40635;SDS011;26642;55.766;37.828;2023-08-12T14:34:44;9.27;;;8.38;;
40635;SDS011;26642;55.766;37.828;2023-08-12T14:37:11;9.90;;;8.80;;
40635;SDS011;26642;55.766;37.828;2023-08-12T14:39:38;9.85;;;8.85;;
40635;SDS011;26642;55.766;37.828;2023-08-12T14:42:04;11.23;;;9.55;;